createdAt,value
2022-08-20T00:00:41.598Z,92916.16
2022-08-20T00:03:25.623Z,92920.94
2022-08-20T00:05:57.784Z,92917.81
2022-08-20T00:08:24.405Z,92918.50
2022-08-20T00:10:55.526Z,92915.38
2022-08-20T00:13:27.277Z,92914.88
2022-08-20T00:15:55.449Z,92915.47
2022-08-20T00:18:23.125Z,92917.09
2022-08-20T00:20:53.395Z,92919.25
2022-08-20T00:23:20.733Z,92920.34
2022-08-20T00:25:48.333Z,92921.41
2022-08-20T00:28:15.211Z,92919.06
2022-08-20T00:30:44.133Z,92916.38
2022-08-20T00:33:13.990Z,92916.19
2022-08-20T00:35:44.516Z,92908.03
2022-08-20T00:38:11.188Z,92910.75
2022-08-20T00:40:46.804Z,92917.19
2022-08-20T00:43:32.144Z,92921.38
2022-08-20T00:46:08.745Z,92922.22
2022-08-20T00:48:39.554Z,92914.44
2022-08-20T00:51:21.426Z,92918.38
2022-08-20T00:53:48.109Z,92920.25
2022-08-20T00:56:14.789Z,92917.31
2022-08-20T00:58:45.182Z,92921.53
2022-08-20T01:01:12.434Z,92923.59
2022-08-20T01:03:39.837Z,92932.53
2022-08-20T01:06:06.596Z,92927.31
2022-08-20T01:08:33.155Z,92929.56
2022-08-20T01:11:16.604Z,92927.41
2022-08-20T01:13:45.302Z,92934.78
2022-08-20T01:16:20.045Z,92938.72
2022-08-20T01:18:48.360Z,92941.56
2022-08-20T01:21:19.116Z,92932.00
2022-08-20T01:23:57.652Z,92938.84
2022-08-20T01:26:32.500Z,92945.72
2022-08-20T01:29:03.210Z,92946.09
2022-08-20T01:31:32.466Z,92942.59
2022-08-20T01:34:01.612Z,92946.81
2022-08-20T01:36:31.845Z,92948.50
2022-08-20T01:38:59.923Z,92944.63
2022-08-20T01:41:51.682Z,92942.50
2022-08-20T01:44:21.783Z,92941.72
2022-08-20T01:46:53.977Z,92943.00
2022-08-20T01:49:34.852Z,92946.94
2022-08-20T01:52:07.549Z,92943.44
2022-08-20T01:54:35.291Z,92945.72
2022-08-20T01:57:14.192Z,92959.88
2022-08-20T01:59:41.738Z,92956.16
2022-08-20T02:02:09.910Z,92960.59
2022-08-20T02:04:36.700Z,92951.84
2022-08-20T02:07:05.941Z,92953.00
2022-08-20T02:09:36.485Z,92952.59
2022-08-20T02:12:04.540Z,92960.03
2022-08-20T02:14:31.739Z,92960.53
2022-08-20T02:16:58.872Z,92963.09
2022-08-20T02:19:38.358Z,92965.88
2022-08-20T02:22:20.189Z,92968.03
2022-08-20T02:24:48.274Z,92960.31
2022-08-20T02:27:14.994Z,92965.41
2022-08-20T02:29:41.870Z,92953.16
2022-08-20T02:32:25.030Z,92947.63
2022-08-20T02:34:55.642Z,92946.56
2022-08-20T02:37:22.235Z,92951.13
2022-08-20T02:39:48.787Z,92937.25
2022-08-20T02:42:15.351Z,92937.44
2022-08-20T02:44:41.879Z,92938.66
2022-08-20T02:47:08.438Z,92939.63
2022-08-20T02:49:35.449Z,92937.00
2022-08-20T02:52:02.096Z,92933.66
2022-08-20T02:54:29.360Z,92944.09
2022-08-20T02:56:56.169Z,92929.13
2022-08-20T02:59:22.745Z,92928.00
2022-08-20T03:01:59.717Z,92924.00
2022-08-20T03:04:29.290Z,92926.22
2022-08-20T03:06:56.554Z,92925.63
2022-08-20T03:09:23.318Z,92928.28
2022-08-20T03:11:50.090Z,92920.03
2022-08-20T03:14:16.694Z,92914.16
2022-08-20T03:16:43.227Z,92911.22
2022-08-20T03:19:09.770Z,92911.75
2022-08-20T03:21:36.778Z,92913.81
2022-08-20T03:24:03.554Z,92908.09
2022-08-20T03:26:30.173Z,92910.44
2022-08-20T03:28:56.808Z,92918.53
2022-08-20T03:31:23.410Z,92913.81
2022-08-20T03:33:53.562Z,92908.44
2022-08-20T03:36:27.722Z,92911.78
2022-08-20T03:39:02.062Z,92921.19
2022-08-20T03:41:29.114Z,92910.75
2022-08-20T03:43:55.837Z,92906.59
2022-08-20T03:46:23.515Z,92911.38
2022-08-20T03:48:56.384Z,92915.59
2022-08-20T03:51:29.310Z,92911.38
2022-08-20T03:53:56.055Z,92914.53
2022-08-20T03:56:22.598Z,92907.88
2022-08-20T03:58:49.396Z,92919.78
2022-08-20T04:01:45.752Z,92916.81
2022-08-20T04:04:02.785Z,92915.44
2022-08-20T04:06:30.343Z,92910.59
2022-08-20T04:08:57.441Z,92922.75
2022-08-20T04:11:24.421Z,92917.09
2022-08-20T04:13:51.278Z,92910.41
2022-08-20T04:16:19.330Z,92921.03
2022-08-20T04:18:58.610Z,92922.09
2022-08-20T04:21:32.869Z,92923.69
2022-08-20T04:24:00.431Z,92917.88
2022-08-20T04:26:26.977Z,92921.63
2022-08-20T04:28:55.473Z,92920.22
2022-08-20T04:31:25.399Z,92929.47
2022-08-20T04:33:52.539Z,92932.59
2022-08-20T04:36:19.215Z,92923.47
2022-08-20T04:38:47.858Z,92929.69
2022-08-20T04:41:22.331Z,92931.06
2022-08-20T04:43:51.765Z,92935.88
2022-08-20T04:46:19.323Z,92934.31
2022-08-20T04:48:48.612Z,92932.34
2022-08-20T04:51:15.813Z,92929.50
2022-08-20T04:53:43.060Z,92930.00
2022-08-20T04:56:09.866Z,92926.56
2022-08-20T04:58:39.489Z,92924.41
2022-08-20T05:01:09.349Z,92919.31
2022-08-20T05:03:38.674Z,92923.44
2022-08-20T05:06:07.234Z,92918.13
2022-08-20T05:08:35.690Z,92911.34
2022-08-20T05:11:30.062Z,92919.31
2022-08-20T05:13:50.357Z,92916.94
2022-08-20T05:16:18.029Z,92915.38
2022-08-20T05:18:45.629Z,92921.16
2022-08-20T05:21:18.913Z,92922.34
2022-08-20T05:23:48.448Z,92926.88
2022-08-20T05:26:16.010Z,92927.25
2022-08-20T05:28:54.472Z,92923.81
2022-08-20T05:31:31.796Z,92932.47
2022-08-20T05:34:09.586Z,92937.19
2022-08-20T05:36:43.564Z,92935.00
2022-08-20T05:39:10.914Z,92939.75
2022-08-20T05:41:38.669Z,92934.63
2022-08-20T05:44:10.036Z,92946.72
2022-08-20T05:46:40.972Z,92942.59
2022-08-20T05:49:09.668Z,92945.34
2022-08-20T05:51:37.023Z,92946.63
2022-08-20T05:54:04.891Z,92948.88
2022-08-20T05:56:32.056Z,92949.00
2022-08-20T05:59:09.711Z,92955.06
2022-08-20T06:01:38.542Z,92951.53
2022-08-20T06:04:24.124Z,92954.78
2022-08-20T06:06:57.492Z,92950.81
2022-08-20T06:09:31.396Z,92952.13
2022-08-20T06:12:04.446Z,92957.75
2022-08-20T06:14:32.277Z,92956.22
2022-08-20T06:17:04.822Z,92963.19
2022-08-20T06:19:33.196Z,92959.97
2022-08-20T06:22:00.576Z,92961.91
2022-08-20T06:24:27.376Z,92965.91
2022-08-20T06:27:02.861Z,92963.63
2022-08-20T06:29:30.018Z,92960.22
2022-08-20T06:31:56.767Z,92957.63
2022-08-20T06:34:28.408Z,92959.59
2022-08-20T06:36:58.954Z,92961.34
2022-08-20T06:39:28.490Z,92966.53
2022-08-20T06:41:58.489Z,92960.63
2022-08-20T06:44:25.950Z,92972.06
2022-08-20T06:46:52.503Z,92969.66
2022-08-20T06:49:19.051Z,92968.00
2022-08-20T06:51:45.638Z,92967.38
2022-08-20T06:54:17.258Z,92971.38
2022-08-20T06:56:44.186Z,92970.00
2022-08-20T06:59:10.753Z,92974.22
2022-08-20T07:01:37.416Z,92973.63
2022-08-20T07:04:05.571Z,92967.06
2022-08-20T07:06:32.135Z,92968.78
2022-08-20T07:08:58.715Z,92965.22
2022-08-20T07:11:28.273Z,92966.50
2022-08-20T07:13:57.213Z,92969.88
2022-08-20T07:16:24.306Z,92970.34
2022-08-20T07:18:50.842Z,92974.56
2022-08-20T07:21:17.452Z,92969.25
2022-08-20T07:23:44.317Z,92973.00
2022-08-20T07:26:10.918Z,92970.19
2022-08-20T07:28:37.519Z,92970.56
2022-08-20T07:31:22.791Z,92968.38
2022-08-20T07:33:50.500Z,92968.19
2022-08-20T07:36:17.671Z,92967.56
2022-08-20T07:38:46.964Z,92975.25
2022-08-20T07:41:14.943Z,92966.19
2022-08-20T07:43:45.533Z,92971.28
2022-08-20T07:46:14.402Z,92974.13
2022-08-20T07:48:46.249Z,92979.47
2022-08-20T07:51:17.144Z,92982.59
2022-08-20T07:53:44.568Z,92972.72
2022-08-20T07:56:14.990Z,92984.50
2022-08-20T07:58:49.628Z,92989.44
2022-08-20T08:01:20.053Z,92988.97
2022-08-20T08:03:49.117Z,92993.13
2022-08-20T08:06:29.451Z,92996.69
2022-08-20T08:09:06.562Z,92992.59
2022-08-20T08:11:34.831Z,92990.84
2022-08-20T08:14:02.933Z,93000.28
2022-08-20T08:16:32.602Z,93000.22
2022-08-20T08:19:02.170Z,92998.72
2022-08-20T08:21:30.163Z,92999.19
2022-08-20T08:23:56.993Z,92996.88
2022-08-20T08:26:23.885Z,92996.88
2022-08-20T08:28:51.379Z,92992.03
2022-08-20T08:31:17.936Z,92990.97
2022-08-20T08:33:44.537Z,92996.28
2022-08-20T08:36:13.579Z,92996.03
2022-08-20T08:38:44.261Z,93000.59
2022-08-20T08:41:19.706Z,93006.19
2022-08-20T08:43:55.589Z,93002.56
2022-08-20T08:46:27.606Z,92999.81
2022-08-20T08:48:57.841Z,93001.84
2022-08-20T08:51:32.957Z,92993.84
2022-08-20T08:54:05.969Z,93008.13
2022-08-20T08:56:34.228Z,93011.72
2022-08-20T08:59:05.033Z,92998.66
2022-08-20T09:01:53.861Z,93012.44
2022-08-20T09:04:22.725Z,93004.69
2022-08-20T09:06:53.547Z,93007.75
2022-08-20T09:09:24.813Z,93003.22
2022-08-20T09:11:54.205Z,92999.84
2022-08-20T09:14:21.742Z,93001.44
2022-08-20T09:16:52.618Z,93001.88
2022-08-20T09:19:20.763Z,92999.69
2022-08-20T09:21:47.394Z,93001.75
2022-08-20T09:24:13.968Z,93009.88
2022-08-20T09:26:40.561Z,93011.56
2022-08-20T09:29:07.185Z,93005.56
2022-08-20T09:31:33.764Z,93002.50
2022-08-20T09:34:00.367Z,93006.75
2022-08-20T09:36:32.305Z,93000.81
2022-08-20T09:38:59.495Z,93007.41
2022-08-20T09:41:26.114Z,93003.53
2022-08-20T09:43:52.823Z,93004.34
2022-08-20T09:46:19.436Z,93003.03
2022-08-20T09:48:53.468Z,93004.44
2022-08-20T09:51:20.112Z,93010.69
2022-08-20T09:53:47.214Z,93003.31
2022-08-20T09:56:13.851Z,93001.28
2022-08-20T09:58:48.101Z,92990.00
2022-08-20T10:01:17.044Z,92992.69
2022-08-20T10:03:45.001Z,93005.28
2022-08-20T10:06:14.647Z,93003.25
2022-08-20T10:08:41.343Z,92996.94
2022-08-20T10:11:07.868Z,93011.56
2022-08-20T10:13:34.397Z,93001.19
2022-08-20T10:16:00.931Z,93012.19
2022-08-20T10:18:27.602Z,93017.03
2022-08-20T10:20:54.128Z,93014.06
2022-08-20T10:23:20.674Z,93004.50
2022-08-20T10:25:47.260Z,93008.72
2022-08-20T10:28:13.768Z,93004.34
2022-08-20T10:30:40.385Z,93007.16
2022-08-20T10:33:07.126Z,93009.66
2022-08-20T10:35:33.771Z,93020.66
2022-08-20T10:38:00.389Z,93008.91
2022-08-20T10:40:27.153Z,93020.81
2022-08-20T10:42:53.804Z,93033.06
2022-08-20T10:45:20.361Z,93015.47
2022-08-20T10:47:46.975Z,93020.94
2022-08-20T10:50:17.071Z,93020.66
2022-08-20T10:52:43.635Z,93018.78
2022-08-20T10:55:10.439Z,93023.13
2022-08-20T10:57:39.245Z,93015.13
2022-08-20T11:00:09.421Z,93023.13
2022-08-20T11:02:36.495Z,93021.09
2022-08-20T11:05:03.805Z,93018.75
2022-08-20T11:07:50.741Z,93017.50
2022-08-20T11:10:22.788Z,93020.63
2022-08-20T11:12:49.285Z,93020.97
2022-08-20T11:15:15.924Z,93021.91
2022-08-20T11:17:43.647Z,93015.91
2022-08-20T11:20:12.956Z,93016.88
2022-08-20T11:22:39.734Z,93020.19
2022-08-20T11:25:07.054Z,93013.88
2022-08-20T11:27:40.269Z,93015.88
2022-08-20T11:30:10.488Z,93014.00
2022-08-20T11:32:37.406Z,93019.50
2022-08-20T11:35:24.376Z,93017.63
2022-08-20T11:37:52.738Z,93018.41
2022-08-20T11:40:20.780Z,93015.13
2022-08-20T11:43:12.615Z,93014.50
2022-08-20T11:45:34.323Z,93015.94
2022-08-20T11:48:05.381Z,93010.47
2022-08-20T11:50:32.546Z,93010.00
2022-08-20T11:53:01.219Z,93014.69
2022-08-20T11:55:29.951Z,93008.09
2022-08-20T11:57:56.896Z,93016.59
2022-08-20T12:00:31.876Z,93011.41
2022-08-20T12:03:05.165Z,93023.81
2022-08-20T12:05:32.521Z,93023.66
2022-08-20T12:08:01.356Z,93028.69
2022-08-20T12:10:28.709Z,93031.38
2022-08-20T12:12:56.311Z,93025.38
2022-08-20T12:15:25.298Z,93033.84
2022-08-20T12:17:52.249Z,93026.47
2022-08-20T12:20:19.306Z,93028.34
2022-08-20T12:22:45.855Z,93033.56
2022-08-20T12:25:15.888Z,93031.66
2022-08-20T12:27:42.573Z,93036.47
2022-08-20T12:30:13.428Z,93031.59
2022-08-20T12:32:40.414Z,93033.00
2022-08-20T12:35:07.853Z,93032.06
2022-08-20T12:37:35.041Z,93034.91
2022-08-20T12:40:05.210Z,93037.28
2022-08-20T12:42:31.886Z,93029.47
2022-08-20T12:44:59.458Z,93040.13
2022-08-20T12:47:32.443Z,93031.50
2022-08-20T12:50:01.715Z,93037.63
2022-08-20T12:52:29.951Z,93039.13
2022-08-20T12:54:57.573Z,93040.53
2022-08-20T12:57:32.862Z,93041.63
2022-08-20T13:00:07.148Z,93041.50
2022-08-20T13:02:33.786Z,93043.88
2022-08-20T13:05:04.968Z,93038.09
2022-08-20T13:07:32.551Z,93029.00
2022-08-20T13:10:00.219Z,93027.72
2022-08-20T13:12:27.270Z,93028.53
2022-08-20T13:14:54.074Z,93026.50
2022-08-20T13:17:33.652Z,93036.72
2022-08-20T13:20:08.920Z,93034.22
2022-08-20T13:22:35.862Z,93021.63
2022-08-20T13:25:02.521Z,93031.03
2022-08-20T13:27:29.088Z,93026.94
2022-08-20T13:29:58.841Z,93030.44
2022-08-20T13:32:26.318Z,93031.22
2022-08-20T13:34:53.233Z,93031.84
2022-08-20T13:37:25.708Z,93031.22
2022-08-20T13:39:53.314Z,93036.84
2022-08-20T13:42:20.464Z,93032.94
2022-08-20T13:44:47.943Z,93028.03
2022-08-20T13:47:20.509Z,93024.91
2022-08-20T13:49:48.365Z,93025.97
2022-08-20T13:52:16.925Z,93020.91
2022-08-20T13:54:46.235Z,93016.63
2022-08-20T13:57:16.151Z,93018.34
2022-08-20T13:59:45.310Z,93025.25
2022-08-20T14:02:13.538Z,93019.19
2022-08-20T14:04:40.557Z,93027.31
2022-08-20T14:07:28.740Z,93023.06
2022-08-20T14:10:04.875Z,93026.50
2022-08-20T14:12:31.463Z,93026.31
2022-08-20T14:14:58.166Z,93026.50
2022-08-20T14:17:34.299Z,93033.38
2022-08-20T14:20:07.480Z,93031.81
2022-08-20T14:22:36.518Z,93026.66
2022-08-20T14:25:04.150Z,93031.19
2022-08-20T14:27:33.355Z,93030.06
2022-08-20T14:30:01.055Z,93020.13
2022-08-20T14:32:27.843Z,93022.97
2022-08-20T14:34:54.789Z,93015.72
2022-08-20T14:37:27.662Z,93015.44
2022-08-20T14:39:57.082Z,93018.44
2022-08-20T14:42:26.494Z,93013.16
2022-08-20T14:44:54.263Z,93018.81
2022-08-20T14:47:22.502Z,93013.81
2022-08-20T14:49:50.369Z,93012.97
2022-08-20T14:52:18.595Z,93014.56
2022-08-20T14:54:45.813Z,93018.94
2022-08-20T14:57:15.145Z,93018.50
2022-08-20T14:59:42.346Z,93025.19
2022-08-20T15:02:12.475Z,93030.34
2022-08-20T15:04:40.826Z,93034.81
2022-08-20T15:07:14.515Z,93033.13
2022-08-20T15:09:43.202Z,93035.09
2022-08-20T15:12:09.799Z,93028.78
2022-08-20T15:14:39.305Z,93029.88
2022-08-20T15:17:06.344Z,93025.19
2022-08-20T15:19:33.156Z,93025.00
2022-08-20T15:21:59.979Z,93027.28
2022-08-20T15:24:26.489Z,93022.91
2022-08-20T15:26:53.036Z,93021.50
2022-08-20T15:29:23.295Z,93017.25
2022-08-20T15:31:51.056Z,93016.47
2022-08-20T15:34:18.218Z,93021.41
2022-08-20T15:36:45.592Z,93017.06
2022-08-20T15:39:12.287Z,93015.41
2022-08-20T15:41:39.001Z,93009.84
2022-08-20T15:44:05.824Z,93015.47
2022-08-20T15:46:37.734Z,93009.47
2022-08-20T15:49:12.259Z,93004.00
2022-08-20T15:51:45.338Z,93005.94
2022-08-20T15:54:21.638Z,93007.19
2022-08-20T15:57:17.323Z,93015.38
2022-08-20T16:00:11.348Z,93014.16
2022-08-20T16:02:55.209Z,93015.09
2022-08-20T16:05:37.005Z,93000.75
2022-08-20T16:08:15.464Z,93004.13
2022-08-20T16:11:06.933Z,93006.63
2022-08-20T16:13:45.833Z,93010.66
2022-08-20T16:16:21.930Z,93010.38
2022-08-20T16:18:51.407Z,93018.69
2022-08-20T16:21:26.690Z,93007.25
2022-08-20T16:23:55.350Z,93012.03
2022-08-20T16:26:36.859Z,93012.50
2022-08-20T16:29:11.512Z,93015.91
2022-08-20T16:32:00.602Z,93014.53
2022-08-20T16:34:54.838Z,93013.78
2022-08-20T16:37:34.682Z,93012.50
2022-08-20T16:40:34.944Z,93009.06
2022-08-20T16:43:05.733Z,93017.03
2022-08-20T16:45:51.073Z,93015.09
2022-08-20T16:48:19.610Z,93015.75
2022-08-20T16:51:00.968Z,93018.72
2022-08-20T16:53:28.093Z,93020.81
2022-08-20T16:55:56.323Z,93025.47
2022-08-20T16:58:22.907Z,93028.31
2022-08-20T17:01:05.203Z,93025.84
2022-08-20T17:03:39.490Z,93023.81
2022-08-20T17:06:32.948Z,93018.13
2022-08-20T17:09:14.435Z,93018.88
2022-08-20T17:11:46.686Z,93015.25
2022-08-20T17:14:16.391Z,93017.66
2022-08-20T17:16:50.132Z,93019.47
2022-08-20T17:19:31.063Z,93014.78
2022-08-20T17:22:09.677Z,93011.91
2022-08-20T17:24:37.735Z,93009.66
2022-08-20T17:27:14.779Z,93009.00
2022-08-20T17:29:56.386Z,93010.22
2022-08-20T17:32:28.903Z,93010.78
2022-08-20T17:34:58.475Z,93005.75
2022-08-20T17:37:33.541Z,93011.91
2022-08-20T17:40:17.164Z,93012.78
2022-08-20T17:42:50.457Z,93011.19
2022-08-20T17:45:28.212Z,93015.09
2022-08-20T17:47:59.514Z,93017.88
2022-08-20T17:50:32.427Z,93015.97
2022-08-20T17:53:36.862Z,93017.16
2022-08-20T17:56:13.694Z,93021.38
2022-08-20T17:58:54.904Z,93026.03
2022-08-20T18:01:23.530Z,93025.97
2022-08-20T18:03:51.454Z,93029.91
2022-08-20T18:06:25.327Z,93022.75
2022-08-20T18:09:15.887Z,93031.94
2022-08-20T18:11:53.648Z,93035.78
2022-08-20T18:14:55.573Z,93036.88
2022-08-20T18:17:49.307Z,93035.59
2022-08-20T18:20:35.484Z,93035.03
2022-08-20T18:23:11.373Z,93021.28
2022-08-20T18:25:47.353Z,93022.91
2022-08-20T18:28:26.878Z,93025.28
2022-08-20T18:30:58.184Z,93029.06
2022-08-20T18:33:30.862Z,93036.59
2022-08-20T18:36:10.615Z,93035.03
2022-08-20T18:38:41.940Z,93038.50
2022-08-20T18:41:27.777Z,93037.78
2022-08-20T18:44:13.187Z,93044.53
2022-08-20T18:46:55.273Z,93050.50
2022-08-20T18:49:59.353Z,93058.97
2022-08-20T18:52:30.402Z,93056.41
2022-08-20T18:54:59.924Z,93057.19
2022-08-20T18:57:41.489Z,93059.22
2022-08-20T19:00:13.861Z,93052.75
2022-08-20T19:02:54.437Z,93057.28
2022-08-20T19:05:45.178Z,93060.06
2022-08-20T19:08:29.412Z,93061.72
2022-08-20T19:11:37.258Z,93063.25
2022-08-20T19:14:30.695Z,93065.38
2022-08-20T19:17:08.206Z,93071.22
2022-08-20T19:19:34.913Z,93069.91
2022-08-20T19:22:02.726Z,93068.81
2022-08-20T19:24:33.775Z,93076.13
2022-08-20T19:27:05.879Z,93071.97
2022-08-20T19:29:39.414Z,93072.69
2022-08-20T19:32:15.870Z,93072.31
2022-08-20T19:34:44.534Z,93081.38
2022-08-20T19:37:35.381Z,93080.91
2022-08-20T19:40:18.362Z,93077.09
2022-08-20T19:42:45.690Z,93082.81
2022-08-20T19:45:25.224Z,93078.00
2022-08-20T19:47:57.413Z,93079.97
2022-08-20T19:50:29.377Z,93074.00
2022-08-20T19:53:29.973Z,93074.88
2022-08-20T19:56:12.541Z,93083.75
2022-08-20T19:58:39.771Z,93073.84
2022-08-20T20:01:15.340Z,93086.22
2022-08-20T20:03:42.141Z,93080.34
2022-08-20T20:06:16.786Z,93077.78
2022-08-20T20:09:22.198Z,93080.84
2022-08-20T20:11:56.088Z,93080.63
2022-08-20T20:14:28.148Z,93079.16
2022-08-20T20:16:55.699Z,93076.91
2022-08-20T20:19:26.697Z,93080.75
2022-08-20T20:22:24.185Z,93080.25
2022-08-20T20:25:13.532Z,93076.41
2022-08-20T20:27:41.113Z,93074.03
2022-08-20T20:30:12.596Z,93076.97
2022-08-20T20:32:44.059Z,93072.47
2022-08-20T20:35:10.610Z,93076.97
2022-08-20T20:37:49.784Z,93071.72
2022-08-20T20:40:27.306Z,93078.13
2022-08-20T20:43:23.249Z,93074.38
2022-08-20T20:45:59.236Z,93068.00
2022-08-20T20:48:26.691Z,93056.88
2022-08-20T20:50:59.496Z,93065.91
2022-08-20T20:53:53.321Z,93063.91
2022-08-20T20:56:43.120Z,93061.94
2022-08-20T20:59:11.169Z,93064.66
2022-08-20T21:01:49.254Z,93069.16
2022-08-20T21:04:22.403Z,93061.41
2022-08-20T21:06:50.192Z,93063.41
2022-08-20T21:09:16.854Z,93058.47
2022-08-20T21:11:43.449Z,93061.00
2022-08-20T21:14:10.093Z,93059.78
2022-08-20T21:16:36.689Z,93065.34
2022-08-20T21:19:07.578Z,93061.97
2022-08-20T21:21:34.622Z,93062.31
2022-08-20T21:24:01.250Z,93065.44
2022-08-20T21:26:28.057Z,93058.81
2022-08-20T21:28:55.147Z,93063.03
2022-08-20T21:31:26.169Z,93059.09
2022-08-20T21:33:52.691Z,93055.16
2022-08-20T21:36:19.206Z,93063.47
2022-08-20T21:38:45.697Z,93057.44
2022-08-20T21:41:14.417Z,93058.75
2022-08-20T21:43:42.357Z,93060.41
2022-08-20T21:46:11.047Z,93063.03
2022-08-20T21:48:40.082Z,93063.66
2022-08-20T21:51:06.738Z,93065.81
2022-08-20T21:53:33.730Z,93064.81
2022-08-20T21:56:00.881Z,93068.09
2022-08-20T21:58:27.409Z,93069.22
2022-08-20T22:00:57.750Z,93074.75
2022-08-20T22:03:27.993Z,93069.22
2022-08-20T22:05:55.241Z,93067.13
2022-08-20T22:08:26.048Z,93072.56
2022-08-20T22:10:57.126Z,93067.31
2022-08-20T22:13:24.916Z,93068.47
2022-08-20T22:15:51.466Z,93058.19
2022-08-20T22:18:18.183Z,93063.22
2022-08-20T22:20:44.974Z,93068.00
2022-08-20T22:23:12.474Z,93060.69
2022-08-20T22:25:40.045Z,93063.91
2022-08-20T22:28:07.085Z,93065.63
2022-08-20T22:30:33.736Z,93071.22
2022-08-20T22:33:04.077Z,93068.88
2022-08-20T22:35:32.418Z,93070.50
2022-08-20T22:37:59.059Z,93066.25
2022-08-20T22:40:26.244Z,93072.59
2022-08-20T22:42:52.881Z,93068.63
2022-08-20T22:45:19.674Z,93063.59
2022-08-20T22:47:46.725Z,93062.81
2022-08-20T22:50:14.722Z,93064.44
2022-08-20T22:52:43.388Z,93057.91
2022-08-20T22:55:10.352Z,93056.38
2022-08-20T22:57:38.052Z,93061.94
2022-08-20T23:00:09.377Z,93053.78
2022-08-20T23:02:36.061Z,93058.59
2022-08-20T23:05:03.194Z,93059.44
2022-08-20T23:07:30.025Z,93055.19
2022-08-20T23:09:56.611Z,93051.81
2022-08-20T23:12:23.172Z,93058.97
2022-08-20T23:14:49.775Z,93051.34
2022-08-20T23:17:19.109Z,93058.47
2022-08-20T23:19:47.914Z,93052.41
2022-08-20T23:22:14.900Z,93056.19
2022-08-20T23:24:44.550Z,93051.19
2022-08-20T23:27:14.446Z,93055.16
2022-08-20T23:29:41.585Z,93053.59
2022-08-20T23:32:08.309Z,93049.38
2022-08-20T23:34:34.973Z,93046.22
2022-08-20T23:37:02.109Z,93049.16
2022-08-20T23:39:29.173Z,93052.06
2022-08-20T23:41:55.830Z,93045.03
2022-08-20T23:44:26.554Z,93042.41
2022-08-20T23:46:56.340Z,93040.81
2022-08-20T23:49:22.873Z,93049.00
2022-08-20T23:51:49.418Z,93040.03
2022-08-20T23:54:16.041Z,93039.25
2022-08-20T23:56:42.573Z,93036.13
2022-08-20T23:59:09.119Z,93036.94
